Time;durP1;ratioP1;P1;durP2;ratioP2;P2;SDS_P1;SDS_P2;PMS_P1;PMS_P2;Temp;Humidity;BMP_temperature;BMP_pressure;BME280_temperature;BME280_humidity;BME280_pressure;Samples;Min_cycle;Max_cycle;Signal;HPM_P1;HPM_P2
2023/04/30 00:01:35;;;;;;;11.25;7.05;;;;;;;;;;5023589;28;20027;-65
2023/04/30 00:04:00;;;;;;;13.30;7.57;;;;;;;;;;5046750;28;20147;-65
2023/04/30 00:06:25;;;;;;;10.30;6.85;;;;;;;;;;5047411;28;21060;-65
2023/04/30 00:08:50;;;;;;;11.25;8.07;;;;;;;;;;5056247;28;20056;-65
2023/04/30 00:11:16;;;;;;;10.05;7.50;;;;;;;;;;5044417;28;20044;-65
2023/04/30 00:13:41;;;;;;;10.90;7.38;;;;;;;;;;5039952;28;20898;-65
2023/04/30 00:16:07;;;;;;;8.18;6.30;;;;;;;;;;5042828;28;20020;-65
2023/04/30 00:18:32;;;;;;;10.25;7.65;;;;;;;;;;5047249;28;20912;-65
2023/04/30 00:20:57;;;;;;;12.45;9.15;;;;;;;;;;5046423;28;20097;-65
2023/04/30 00:23:23;;;;;;;9.95;7.55;;;;;;;;;;5046806;28;20881;-65
2023/04/30 00:25:48;;;;;;;14.05;8.60;;;;;;;;;;5047294;28;20031;-66
2023/04/30 00:28:13;;;;;;;11.60;8.32;;;;;;;;;;5046302;28;20973;-65
2023/04/30 00:30:38;;;;;;;22.42;8.50;;;;;;;;;;5047017;28;20744;-65
2023/04/30 00:33:04;;;;;;;11.30;8.43;;;;;;;;;;5048158;28;20074;-66
2023/04/30 00:35:29;;;;;;;12.77;8.68;;;;;;;;;;5042790;28;20285;-65
2023/04/30 00:37:55;;;;;;;9.48;8.10;;;;;;;;;;5045817;28;20031;-65
2023/04/30 00:40:20;;;;;;;12.45;8.40;;;;;;;;;;5037541;28;21022;-65
2023/04/30 00:42:45;;;;;;;11.07;8.05;;;;;;;;;;5041570;28;20025;-65
2023/04/30 00:45:10;;;;;;;11.65;8.63;;;;;;;;;;5038706;28;20915;-65
2023/04/30 00:47:36;;;;;;;14.20;9.18;;;;;;;;;;5045688;28;20023;-66
2023/04/30 00:50:01;;;;;;;10.52;8.05;;;;;;;;;;5047016;28;20028;-65
2023/04/30 00:52:27;;;;;;;12.02;9.13;;;;;;;;;;5039677;28;20965;-65
2023/04/30 00:54:53;;;;;;;12.27;8.75;;;;;;;;;;5047073;28;20040;-65
2023/04/30 00:57:19;;;;;;;13.25;8.60;;;;;;;;;;5042771;28;20108;-65
2023/04/30 00:59:44;;;;;;;12.80;9.48;;;;;;;;;;5046713;28;20020;-65
2023/04/30 01:02:10;;;;;;;15.48;10.68;;;;;;;;;;5047248;28;20035;-65
2023/04/30 01:04:36;;;;;;;12.65;9.00;;;;;;;;;;5045895;28;20016;-65
2023/04/30 01:07:02;;;;;;;13.07;10.15;;;;;;;;;;5038411;28;20888;-65
2023/04/30 01:09:28;;;;;;;12.18;10.25;;;;;;;;;;5046387;28;20019;-65
2023/04/30 01:12:07;;;;;;;16.38;10.43;;;;;;;;;;5044215;28;20028;-65
2023/04/30 01:14:55;;;;;;;19.17;11.43;;;;;;;;;;5043110;28;20042;-65
2023/04/30 01:17:31;;;;;;;13.10;10.07;;;;;;;;;;5041290;28;20020;-65
2023/04/30 01:19:56;;;;;;;15.73;11.25;;;;;;;;;;5040681;28;20848;-65
2023/04/30 01:22:31;;;;;;;18.73;11.60;;;;;;;;;;5039280;28;20067;-65
2023/04/30 01:24:56;;;;;;;;;;;;;;;;;;5045150;28;20035;-65
2023/04/30 01:27:22;;;;;;;15.70;10.73;;;;;;;;;;5044147;28;19916;-65
2023/04/30 01:29:48;;;;;;;14.23;11.25;;;;;;;;;;5034395;28;20039;-65
2023/04/30 01:32:13;;;;;;;15.73;11.35;;;;;;;;;;5040642;28;20027;-65
2023/04/30 01:34:38;;;;;;;16.38;12.15;;;;;;;;;;5054435;28;20952;-65
2023/04/30 01:37:19;;;;;;;20.13;12.02;;;;;;;;;;5046747;28;20020;-65
2023/04/30 01:40:03;;;;;;;19.52;12.57;;;;;;;;;;5046283;28;20091;-66
2023/04/30 01:42:46;;;;;;;18.73;12.77;;;;;;;;;;5042113;28;20502;-65
2023/04/30 01:45:29;;;;;;;20.40;13.23;;;;;;;;;;5047458;28;20039;-65
2023/04/30 01:48:11;;;;;;;15.82;11.60;;;;;;;;;;5044430;28;20050;-65
2023/04/30 01:50:36;;;;;;;14.98;12.13;;;;;;;;;;5047248;28;20081;-65
2023/04/30 01:53:02;;;;;;;21.05;13.38;;;;;;;;;;5048760;28;20089;-65
2023/04/30 01:55:29;;;;;;;22.52;13.35;;;;;;;;;;5046583;28;20870;-66
2023/04/30 01:57:58;;;;;;;19.77;14.07;;;;;;;;;;5044972;28;20028;-66
2023/04/30 02:00:24;;;;;;;14.55;12.02;;;;;;;;;;5029302;28;20013;-65
2023/04/30 02:02:50;;;;;;;17.45;13.23;;;;;;;;;;5040252;28;20122;-65
2023/04/30 02:05:15;;;;;;;18.42;13.68;;;;;;;;;;5043122;28;20316;-65
2023/04/30 02:07:42;;;;;;;21.13;13.73;;;;;;;;;;5041221;28;20055;-65
2023/04/30 02:10:08;;;;;;;23.10;14.45;;;;;;;;;;5028881;28;20028;-65
2023/04/30 02:12:34;;;;;;;18.67;15.95;;;;;;;;;;5045598;28;20075;-66
2023/04/30 02:14:59;;;;;;;20.02;14.48;;;;;;;;;;5044372;28;20135;-65
2023/04/30 02:17:24;;;;;;;20.65;16.00;;;;;;;;;;5047061;28;20082;-65
2023/04/30 02:19:50;;;;;;;22.33;15.55;;;;;;;;;;5045665;28;20078;-65
2023/04/30 02:22:15;;;;;;;19.30;14.90;;;;;;;;;;5048927;28;20975;-65
2023/04/30 02:24:40;;;;;;;22.20;15.30;;;;;;;;;;5045792;28;20020;-65
2023/04/30 02:27:06;;;;;;;19.08;15.25;;;;;;;;;;5044109;28;20829;-65
2023/04/30 02:29:31;;;;;;;19.02;15.50;;;;;;;;;;5039947;28;20025;-66
2023/04/30 02:31:57;;;;;;;26.67;16.50;;;;;;;;;;5036865;28;20123;-66
2023/04/30 02:34:23;;;;;;;21.35;16.90;;;;;;;;;;5055989;28;20839;-65
2023/04/30 02:36:48;;;;;;;21.38;17.60;;;;;;;;;;5043628;28;20097;-64
2023/04/30 02:39:13;;;;;;;21.23;17.85;;;;;;;;;;5042319;28;20027;-65
2023/04/30 02:41:39;;;;;;;23.88;17.30;;;;;;;;;;5047539;28;20024;-66
2023/04/30 02:44:04;;;;;;;24.38;19.27;;;;;;;;;;5044682;28;20027;-66
2023/04/30 02:46:29;;;;;;;23.88;18.27;;;;;;;;;;5042592;28;20036;-66
2023/04/30 02:48:54;;;;;;;21.60;18.67;;;;;;;;;;5045196;28;20936;-67
2023/04/30 02:51:20;;;;;;;21.60;18.40;;;;;;;;;;5062283;28;20069;-66
2023/04/30 02:53:45;;;;;;;25.98;19.13;;;;;;;;;;5055058;28;20051;-66
2023/04/30 02:56:10;;;;;;;22.67;18.45;;;;;;;;;;5042606;28;20076;-66
2023/04/30 02:58:35;;;;;;;23.55;18.30;;;;;;;;;;5061711;28;20024;-65
2023/04/30 03:01:01;;;;;;;27.45;19.25;;;;;;;;;;5051011;28;20886;-65
2023/04/30 03:03:26;;;;;;;24.63;20.10;;;;;;;;;;5042112;28;20127;-66
2023/04/30 03:05:51;;;;;;;25.98;19.20;;;;;;;;;;5036851;28;20893;-65
2023/04/30 03:08:16;;;;;;;30.65;20.83;;;;;;;;;;5043567;28;20232;-65
2023/04/30 03:10:41;;;;;;;26.67;20.08;;;;;;;;;;5042211;28;20027;-65
2023/04/30 03:13:07;;;;;;;25.55;19.83;;;;;;;;;;5035664;28;20772;-66
2023/04/30 03:15:32;;;;;;;30.92;22.15;;;;;;;;;;5046154;28;20039;-65
2023/04/30 03:17:57;;;;;;;25.00;20.60;;;;;;;;;;5038448;28;20928;-65
2023/04/30 03:20:23;;;;;;;29.33;20.83;;;;;;;;;;5045293;28;20178;-65
2023/04/30 03:22:48;;;;;;;28.45;22.25;;;;;;;;;;5043289;28;20147;-65
2023/04/30 03:25:13;;;;;;;28.08;21.58;;;;;;;;;;5044656;28;20024;-65
2023/04/30 03:27:39;;;;;;;29.38;21.27;;;;;;;;;;5043245;28;20802;-65
2023/04/30 03:30:06;;;;;;;28.85;22.33;;;;;;;;;;5038528;28;20121;-65
2023/04/30 03:32:31;;;;;;;30.42;22.83;;;;;;;;;;5043781;28;20028;-64
2023/04/30 03:34:56;;;;;;;29.02;21.83;;;;;;;;;;5041465;28;20023;-66
2023/04/30 03:37:21;;;;;;;26.63;22.20;;;;;;;;;;5045366;28;20919;-65
2023/04/30 03:39:47;;;;;;;31.73;22.77;;;;;;;;;;5044089;28;20898;-65
2023/04/30 03:42:12;;;;;;;29.40;23.52;;;;;;;;;;5042685;28;20034;-65
2023/04/30 03:44:37;;;;;;;32.00;22.02;;;;;;;;;;5044306;28;20126;-65
2023/04/30 03:47:03;;;;;;;32.58;22.60;;;;;;;;;;5043545;28;20987;-65
2023/04/30 03:49:28;;;;;;;28.73;24.00;;;;;;;;;;5037854;28;20870;-64
2023/04/30 03:51:53;;;;;;;29.23;22.65;;;;;;;;;;5044065;28;20082;-65
2023/04/30 03:54:19;;;;;;;29.88;24.23;;;;;;;;;;5044168;28;20028;-65
2023/04/30 03:56:44;;;;;;;31.83;23.92;;;;;;;;;;5043476;28;20852;-65
2023/04/30 03:59:10;;;;;;;29.17;23.88;;;;;;;;;;5044790;28;20032;-65
2023/04/30 04:01:35;;;;;;;30.60;23.35;;;;;;;;;;5044663;28;20075;-65
2023/04/30 04:04:00;;;;;;;31.63;23.77;;;;;;;;;;5045884;28;20789;-65
2023/04/30 04:06:26;;;;;;;33.78;25.42;;;;;;;;;;5043945;28;20055;-65
2023/04/30 04:08:51;;;;;;;28.00;24.02;;;;;;;;;;5044506;28;20063;-65
2023/04/30 04:11:16;;;;;;;34.40;25.05;;;;;;;;;;5043408;28;20866;-65
2023/04/30 04:13:42;;;;;;;33.88;25.77;;;;;;;;;;5045372;28;21012;-65
2023/04/30 04:16:08;;;;;;;35.70;27.48;;;;;;;;;;5042449;28;20135;-65
2023/04/30 04:18:33;;;;;;;36.58;26.88;;;;;;;;;;5042964;28;20028;-65
2023/04/30 04:21:00;;;;;;;36.83;27.02;;;;;;;;;;5044485;28;20917;-65
2023/04/30 04:23:25;;;;;;;32.72;25.73;;;;;;;;;;5043012;28;20139;-65
2023/04/30 04:25:51;;;;;;;33.90;25.38;;;;;;;;;;5043543;28;20020;-65
2023/04/30 04:28:16;;;;;;;34.85;24.88;;;;;;;;;;5042835;28;20364;-66
2023/04/30 04:30:42;;;;;;;30.40;25.73;;;;;;;;;;5035696;28;20028;-65
2023/04/30 04:33:07;;;;;;;39.25;27.15;;;;;;;;;;5029636;28;20082;-65
2023/04/30 04:35:33;;;;;;;34.13;26.88;;;;;;;;;;5043432;28;20787;-65
2023/04/30 04:37:58;;;;;;;35.80;26.38;;;;;;;;;;5026534;28;20028;-65
2023/04/30 04:40:23;;;;;;;34.55;28.05;;;;;;;;;;5044051;28;20412;-65
2023/04/30 04:42:50;;;;;;;33.15;27.88;;;;;;;;;;5046559;28;20032;-66
2023/04/30 04:45:16;;;;;;;33.78;26.85;;;;;;;;;;5046488;28;20038;-65
2023/04/30 04:47:41;;;;;;;35.20;27.90;;;;;;;;;;5048793;28;20028;-65
2023/04/30 04:50:06;;;;;;;38.75;28.25;;;;;;;;;;5048409;28;20922;-64
2023/04/30 04:52:32;;;;;;;37.92;28.05;;;;;;;;;;5056280;28;20028;-65
2023/04/30 04:54:57;;;;;;;36.08;28.50;;;;;;;;;;5046844;28;20024;-65
2023/04/30 04:57:22;;;;;;;32.35;26.67;;;;;;;;;;5037566;28;20032;-65
2023/04/30 04:59:48;;;;;;;41.08;29.20;;;;;;;;;;5037874;28;20795;-65
2023/04/30 05:02:13;;;;;;;39.80;28.27;;;;;;;;;;5049444;28;20062;-65
2023/04/30 05:04:38;;;;;;;33.72;26.45;;;;;;;;;;5043906;28;20920;-65
2023/04/30 05:07:04;;;;;;;32.92;25.77;;;;;;;;;;5048611;28;20193;-63
2023/04/30 05:09:29;;;;;;;37.95;28.00;;;;;;;;;;5048565;28;20908;-65
2023/04/30 05:11:54;;;;;;;37.67;27.70;;;;;;;;;;5047726;28;20024;-65
2023/04/30 05:14:20;;;;;;;41.65;26.58;;;;;;;;;;5047345;28;20020;-65
2023/04/30 05:16:45;;;;;;;35.35;28.00;;;;;;;;;;5047648;28;21010;-65
2023/04/30 05:19:10;;;;;;;35.45;27.17;;;;;;;;;;5047609;28;20499;-65
2023/04/30 05:21:36;;;;;;;32.05;26.63;;;;;;;;;;5043335;28;20816;-65
2023/04/30 05:24:01;;;;;;;29.48;25.48;;;;;;;;;;5041979;28;20059;-65
2023/04/30 05:26:26;;;;;;;36.92;26.42;;;;;;;;;;5047873;28;20810;-65
2023/04/30 05:28:52;;;;;;;35.00;25.80;;;;;;;;;;5048204;28;20016;-64
2023/04/30 05:31:17;;;;;;;34.50;25.98;;;;;;;;;;5046828;28;20901;-65
2023/04/30 05:33:42;;;;;;;33.05;25.60;;;;;;;;;;5048098;28;20085;-65
2023/04/30 05:36:09;;;;;;;28.08;23.25;;;;;;;;;;5047841;28;20038;-65
2023/04/30 05:38:34;;;;;;;35.88;25.20;;;;;;;;;;5046879;28;20032;-66
2023/04/30 05:40:59;;;;;;;31.08;24.65;;;;;;;;;;5047473;28;20020;-64
2023/04/30 05:43:24;;;;;;;32.47;24.70;;;;;;;;;;5080941;28;20032;-65
2023/04/30 05:45:50;;;;;;;33.88;24.25;;;;;;;;;;5093172;28;20115;-66
2023/04/30 05:48:15;;;;;;;29.45;24.02;;;;;;;;;;5092775;28;20433;-66
2023/04/30 05:50:40;;;;;;;30.67;23.88;;;;;;;;;;5092189;28;20046;-66
2023/04/30 05:53:05;;;;;;;26.67;22.13;;;;;;;;;;5092568;28;20062;-66
2023/04/30 05:55:31;;;;;;;27.77;22.20;;;;;;;;;;5091193;28;20479;-66
2023/04/30 05:57:56;;;;;;;28.38;21.65;;;;;;;;;;5092490;28;20051;-66
2023/04/30 06:00:21;;;;;;;31.02;22.27;;;;;;;;;;5091640;28;20161;-66
2023/04/30 06:02:47;;;;;;;30.88;22.38;;;;;;;;;;5083136;28;20036;-66
2023/04/30 06:05:12;;;;;;;27.95;21.42;;;;;;;;;;5089249;28;20057;-66
2023/04/30 06:07:37;;;;;;;29.00;20.20;;;;;;;;;;5092476;28;20068;-66
2023/04/30 06:10:03;;;;;;;24.55;19.50;;;;;;;;;;5043163;28;20889;-67
2023/04/30 06:12:28;;;;;;;25.45;20.80;;;;;;;;;;5036563;28;20028;-66
2023/04/30 06:14:53;;;;;;;25.83;20.77;;;;;;;;;;5075366;28;20028;-66
2023/04/30 06:17:19;;;;;;;28.75;20.67;;;;;;;;;;5057876;28;20024;-66
2023/04/30 06:19:44;;;;;;;26.35;19.52;;;;;;;;;;5087586;28;20051;-66
2023/04/30 06:22:09;;;;;;;27.98;20.27;;;;;;;;;;5061158;28;20136;-66
2023/04/30 06:24:35;;;;;;;23.23;19.33;;;;;;;;;;5025586;28;20027;-67
2023/04/30 06:27:01;;;;;;;24.98;20.17;;;;;;;;;;5043351;28;20141;-66
2023/04/30 06:29:26;;;;;;;27.17;20.40;;;;;;;;;;5044809;28;20068;-66
2023/04/30 06:31:52;;;;;;;24.70;20.25;;;;;;;;;;5056691;28;20032;-68
2023/04/30 06:34:18;;;;;;;28.13;21.10;;;;;;;;;;5064761;28;20020;-62
2023/04/30 06:36:43;;;;;;;28.73;21.27;;;;;;;;;;5091938;28;20043;-64
2023/04/30 06:39:09;;;;;;;24.40;19.52;;;;;;;;;;5085964;28;20526;-65
2023/04/30 06:41:34;;;;;;;25.15;19.30;;;;;;;;;;5092000;28;20054;-64
2023/04/30 06:43:59;;;;;;;25.23;18.25;;;;;;;;;;5091563;28;20727;-66
2023/04/30 06:46:24;;;;;;;23.20;19.52;;;;;;;;;;5090970;28;20028;-66
2023/04/30 06:48:50;;;;;;;26.55;20.05;;;;;;;;;;5083780;28;20060;-66
2023/04/30 06:51:15;;;;;;;34.22;18.33;;;;;;;;;;5091724;28;20035;-66
2023/04/30 06:53:40;;;;;;;25.85;19.15;;;;;;;;;;5063711;28;20020;-66
2023/04/30 06:56:06;;;;;;;25.30;19.58;;;;;;;;;;5040887;28;20083;-66
2023/04/30 06:58:31;;;;;;;31.60;19.52;;;;;;;;;;5045345;28;20031;-66
2023/04/30 07:00:57;;;;;;;29.08;20.33;;;;;;;;;;5045831;28;20035;-66
2023/04/30 07:03:22;;;;;;;26.45;18.75;;;;;;;;;;5042905;28;20152;-66
2023/04/30 07:05:47;;;;;;;27.08;18.55;;;;;;;;;;5046496;28;20857;-66
2023/04/30 07:08:13;;;;;;;27.02;18.83;;;;;;;;;;5045159;28;20869;-66
2023/04/30 07:10:39;;;;;;;25.40;19.45;;;;;;;;;;5036535;28;20874;-67
2023/04/30 07:13:06;;;;;;;25.80;19.65;;;;;;;;;;5042520;28;20055;-66
2023/04/30 07:15:31;;;;;;;25.83;19.17;;;;;;;;;;5037704;28;20016;-67
2023/04/30 07:17:57;;;;;;;20.75;17.83;;;;;;;;;;5057952;28;20378;-66
2023/04/30 07:20:22;;;;;;;26.90;19.17;;;;;;;;;;5090638;28;20024;-66
2023/04/30 07:22:47;;;;;;;23.48;17.70;;;;;;;;;;5091723;28;20074;-67
2023/04/30 07:25:13;;;;;;;22.95;16.95;;;;;;;;;;5090655;28;20444;-66
2023/04/30 07:27:39;;;;;;;22.80;18.23;;;;;;;;;;5091310;28;20024;-66
2023/04/30 07:30:05;;;;;;;20.60;18.08;;;;;;;;;;5072511;28;20126;-66
2023/04/30 07:32:30;;;;;;;23.55;18.70;;;;;;;;;;5072558;28;20118;-66
2023/04/30 07:34:55;;;;;;;21.83;18.13;;;;;;;;;;5091061;28;20398;-66
2023/04/30 07:37:21;;;;;;;31.27;18.58;;;;;;;;;;5091200;28;20046;-66
2023/04/30 07:39:46;;;;;;;24.45;19.60;;;;;;;;;;5090429;28;20390;-66
2023/04/30 07:42:11;;;;;;;31.13;19.58;;;;;;;;;;5091127;28;20032;-66
2023/04/30 07:44:37;;;;;;;24.15;18.50;;;;;;;;;;5090857;28;20089;-66
2023/04/30 07:47:02;;;;;;;22.95;18.55;;;;;;;;;;5091053;28;20507;-66
2023/04/30 07:49:27;;;;;;;29.38;18.80;;;;;;;;;;5065586;28;20035;-66
2023/04/30 07:51:53;;;;;;;22.67;18.77;;;;;;;;;;5044807;28;20556;-66
2023/04/30 07:54:18;;;;;;;18.38;16.48;;;;;;;;;;5045609;28;20138;-67
2023/04/30 07:56:43;;;;;;;21.60;17.15;;;;;;;;;;5044014;28;20865;-67
2023/04/30 07:59:09;;;;;;;23.65;18.30;;;;;;;;;;5074521;28;20107;-66
2023/04/30 08:01:34;;;;;;;21.58;16.83;;;;;;;;;;5091402;28;20650;-66
2023/04/30 08:04:00;;;;;;;23.92;16.75;;;;;;;;;;5091271;28;20020;-66
2023/04/30 08:06:28;;;;;;;20.13;15.35;;;;;;;;;;5088318;28;20119;-66
2023/04/30 08:08:53;;;;;;;18.27;15.00;;;;;;;;;;5087875;28;20026;-66
2023/04/30 08:11:18;;;;;;;21.88;15.35;;;;;;;;;;5090580;28;20138;-67
2023/04/30 08:13:44;;;;;;;18.45;14.20;;;;;;;;;;5089757;28;20063;-66
2023/04/30 08:16:09;;;;;;;22.25;15.32;;;;;;;;;;5090670;28;20078;-66
2023/04/30 08:18:36;;;;;;;20.20;15.15;;;;;;;;;;5091325;28;20065;-66
2023/04/30 08:21:01;;;;;;;17.67;13.52;;;;;;;;;;5094333;28;20024;-66
2023/04/30 08:23:26;;;;;;;14.63;11.45;;;;;;;;;;5093560;28;20035;-66
2023/04/30 08:25:52;;;;;;;18.27;13.25;;;;;;;;;;5093288;28;20111;-67
2023/04/30 08:28:17;;;;;;;12.50;10.95;;;;;;;;;;5090295;28;20104;-66
2023/04/30 08:30:43;;;;;;;17.08;13.43;;;;;;;;;;5084961;28;20363;-66
2023/04/30 08:33:08;;;;;;;19.65;13.45;;;;;;;;;;5093596;28;20565;-67
2023/04/30 08:35:33;;;;;;;15.90;12.35;;;;;;;;;;5093847;28;20040;-67
2023/04/30 08:37:59;;;;;;;12.43;10.85;;;;;;;;;;5093382;28;20047;-67
2023/04/30 08:40:25;;;;;;;21.77;12.85;;;;;;;;;;5093167;28;20142;-66
2023/04/30 08:42:56;;;;;;;15.45;12.57;;;;;;;;;;5093898;28;20469;-67
2023/04/30 08:45:21;;;;;;;16.02;12.63;;;;;;;;;;5082925;28;20037;-67
2023/04/30 08:47:47;;;;;;;15.23;12.27;;;;;;;;;;5091924;28;20020;-67
2023/04/30 08:50:12;;;;;;;14.07;12.30;;;;;;;;;;5093341;28;20024;-67
2023/04/30 08:52:38;;;;;;;12.35;11.05;;;;;;;;;;5093855;28;20485;-67
2023/04/30 08:55:06;;;;;;;22.92;11.65;;;;;;;;;;5093793;28;20130;-66
2023/04/30 08:57:31;;;;;;;15.55;11.63;;;;;;;;;;5081404;28;20103;-67
2023/04/30 08:59:57;;;;;;;15.38;12.38;;;;;;;;;;5093244;28;20111;-67
2023/04/30 09:02:22;;;;;;;14.30;11.88;;;;;;;;;;5091679;28;20024;-66
2023/04/30 09:04:48;;;;;;;15.73;13.48;;;;;;;;;;5093576;28;20103;-66
2023/04/30 09:07:13;;;;;;;19.02;12.80;;;;;;;;;;5092796;28;20016;-66
2023/04/30 09:09:39;;;;;;;15.23;12.57;;;;;;;;;;5093645;28;20032;-66
2023/04/30 09:12:13;;;;;;;18.25;11.35;;;;;;;;;;5091028;28;20055;-67
2023/04/30 09:14:39;;;;;;;15.95;11.38;;;;;;;;;;5092864;28;20097;-67
2023/04/30 09:17:05;;;;;;;22.38;10.05;;;;;;;;;;5093110;28;20462;-66
2023/04/30 09:19:30;;;;;;;16.13;9.93;;;;;;;;;;5093451;28;20047;-66
2023/04/30 09:21:56;;;;;;;12.93;8.85;;;;;;;;;;5092280;28;20466;-66
2023/04/30 09:24:22;;;;;;;16.17;9.98;;;;;;;;;;5093144;28;20062;-66
2023/04/30 09:26:47;;;;;;;12.23;9.50;;;;;;;;;;5066671;28;20086;-66
2023/04/30 09:29:13;;;;;;;10.35;8.45;;;;;;;;;;5042800;28;20912;-66
2023/04/30 09:31:39;;;;;;;13.32;9.75;;;;;;;;;;5058344;28;20020;-66
2023/04/30 09:34:05;;;;;;;13.18;9.68;;;;;;;;;;5093429;28;20020;-66
2023/04/30 09:36:30;;;;;;;15.82;8.85;;;;;;;;;;5092786;28;20023;-66
2023/04/30 09:38:56;;;;;;;13.80;9.23;;;;;;;;;;5092292;28;20024;-66
2023/04/30 09:41:23;;;;;;;17.50;10.95;;;;;;;;;;5092489;28;20081;-66
2023/04/30 09:43:48;;;;;;;12.32;8.93;;;;;;;;;;5092315;28;20574;-66
2023/04/30 09:46:13;;;;;;;12.18;8.35;;;;;;;;;;5092893;28;20111;-66
2023/04/30 09:48:43;;;;;;;9.60;7.50;;;;;;;;;;5093270;28;20416;-66
2023/04/30 09:51:08;;;;;;;11.25;6.72;;;;;;;;;;5086405;28;20023;-66
2023/04/30 09:53:36;;;;;;;11.13;8.30;;;;;;;;;;5092590;28;20032;-66
2023/04/30 09:56:05;;;;;;;9.85;8.35;;;;;;;;;;5088600;28;20024;-66
2023/04/30 09:58:34;;;;;;;10.18;7.75;;;;;;;;;;5092710;28;20028;-66
2023/04/30 10:01:02;;;;;;;12.00;6.63;;;;;;;;;;5092220;28;20052;-66
2023/04/30 10:03:29;;;;;;;8.35;6.22;;;;;;;;;;5074562;28;20074;-66
2023/04/30 10:05:54;;;;;;;8.45;6.45;;;;;;;;;;5059826;28;20035;-66
2023/04/30 10:08:26;;;;;;;9.90;6.28;;;;;;;;;;5042929;28;20060;-66
2023/04/30 10:10:57;;;;;;;7.93;6.35;;;;;;;;;;5041534;28;20895;-67
2023/04/30 10:13:25;;;;;;;10.20;6.70;;;;;;;;;;5040555;28;20036;-66
2023/04/30 10:15:52;;;;;;;7.28;5.97;;;;;;;;;;5047048;28;20039;-65
2023/04/30 10:18:19;;;;;;;8.27;6.18;;;;;;;;;;5035807;28;20024;-65
2023/04/30 10:20:46;;;;;;;6.47;5.13;;;;;;;;;;5031425;28;20074;-65
2023/04/30 10:23:11;;;;;;;6.38;4.40;;;;;;;;;;5040159;28;20032;-66
2023/04/30 10:25:37;;;;;;;9.05;4.95;;;;;;;;;;5042796;28;20054;-66
2023/04/30 10:28:03;;;;;;;8.45;4.78;;;;;;;;;;5046215;28;20065;-65
2023/04/30 10:30:30;;;;;;;6.18;5.03;;;;;;;;;;5035812;28;20028;-65
2023/04/30 10:32:56;;;;;;;6.43;4.35;;;;;;;;;;5045505;28;20027;-66
2023/04/30 10:35:25;;;;;;;8.50;4.90;;;;;;;;;;5047101;28;20029;-65
2023/04/30 10:37:53;;;;;;;9.18;4.57;;;;;;;;;;5055169;28;20107;-66
2023/04/30 10:40:19;;;;;;;6.35;4.47;;;;;;;;;;5088527;28;20530;-65
2023/04/30 10:42:48;;;;;;;6.65;3.60;;;;;;;;;;5089429;28;20113;-65
2023/04/30 10:45:14;;;;;;;5.00;3.55;;;;;;;;;;5091334;28;20012;-65
2023/04/30 10:47:46;;;;;;;6.13;3.72;;;;;;;;;;5054454;28;20046;-65
2023/04/30 10:50:12;;;;;;;6.97;4.93;;;;;;;;;;5038213;28;20028;-66
2023/04/30 10:52:37;;;;;;;6.57;4.60;;;;;;;;;;5045517;28;20030;-65
2023/04/30 10:55:09;;;;;;;7.13;5.20;;;;;;;;;;5046455;28;20028;-66
2023/04/30 10:57:47;;;;;;;5.07;3.67;;;;;;;;;;5045564;28;20074;-65
2023/04/30 11:00:13;;;;;;;7.60;4.05;;;;;;;;;;5038450;28;20075;-65
2023/04/30 11:02:39;;;;;;;4.03;2.88;;;;;;;;;;5087119;28;20024;-65
2023/04/30 11:05:12;;;;;;;6.38;3.90;;;;;;;;;;5091716;28;20520;-64
2023/04/30 11:07:47;;;;;;;5.93;4.55;;;;;;;;;;5091302;28;20020;-65
2023/04/30 11:10:12;;;;;;;5.97;3.20;;;;;;;;;;5091717;28;20024;-65
2023/04/30 11:12:39;;;;;;;6.03;3.20;;;;;;;;;;5090391;28;20024;-65
2023/04/30 11:15:06;;;;;;;4.80;3.50;;;;;;;;;;5091555;28;20379;-65
2023/04/30 11:17:32;;;;;;;5.72;3.90;;;;;;;;;;5090775;28;20027;-65
2023/04/30 11:19:59;;;;;;;4.80;3.17;;;;;;;;;;5081837;28;20024;-65
2023/04/30 11:22:25;;;;;;;6.22;3.33;;;;;;;;;;5045229;28;20043;-65
2023/04/30 11:25:03;;;;;;;5.53;3.70;;;;;;;;;;5044941;28;20230;-66
2023/04/30 11:27:30;;;;;;;5.30;3.38;;;;;;;;;;5036455;28;20028;-65
2023/04/30 11:29:55;;;;;;;4.82;2.97;;;;;;;;;;5042139;28;20024;-65
2023/04/30 11:32:21;;;;;;;4.70;2.95;;;;;;;;;;5035942;28;20081;-66
2023/04/30 11:34:47;;;;;;;4.72;2.70;;;;;;;;;;5039591;28;20024;-66
2023/04/30 11:37:17;;;;;;;6.93;2.55;;;;;;;;;;5061377;28;20058;-66
2023/04/30 11:39:42;;;;;;;4.47;2.47;;;;;;;;;;5090108;28;20033;-65
2023/04/30 11:42:08;;;;;;;3.88;2.25;;;;;;;;;;5047982;28;20953;-65
2023/04/30 11:44:33;;;;;;;3.78;2.20;;;;;;;;;;5036691;28;20094;-65
2023/04/30 11:46:59;;;;;;;3.95;1.98;;;;;;;;;;5043073;28;20059;-66
2023/04/30 11:49:25;;;;;;;3.85;2.00;;;;;;;;;;5043196;28;20066;-66
2023/04/30 11:51:51;;;;;;;2.83;1.20;;;;;;;;;;5031143;28;20032;-65
2023/04/30 11:54:17;;;;;;;2.05;1.00;;;;;;;;;;5041050;28;20127;-66
2023/04/30 11:56:47;;;;;;;2.22;1.00;;;;;;;;;;5047869;28;20023;-65
2023/04/30 11:59:12;;;;;;;2.03;0.90;;;;;;;;;;5047712;28;20024;-66
2023/04/30 12:01:39;;;;;;;3.15;1.05;;;;;;;;;;5043429;28;20082;-65
2023/04/30 12:04:05;;;;;;;4.88;2.22;;;;;;;;;;5046984;28;20028;-65
2023/04/30 12:06:30;;;;;;;2.95;1.73;;;;;;;;;;5042752;28;20020;-65
2023/04/30 12:08:56;;;;;;;5.80;2.10;;;;;;;;;;5043362;28;20055;-65
2023/04/30 12:11:24;;;;;;;3.38;1.70;;;;;;;;;;5046836;28;20030;-65
2023/04/30 12:13:53;;;;;;;4.38;1.80;;;;;;;;;;5044185;28;20024;-65
2023/04/30 12:16:18;;;;;;;2.90;1.80;;;;;;;;;;5045245;28;20028;-65
2023/04/30 12:18:44;;;;;;;3.30;1.77;;;;;;;;;;5047625;28;20062;-64
2023/04/30 12:21:09;;;;;;;3.97;2.20;;;;;;;;;;5036217;28;20021;-65
2023/04/30 12:23:35;;;;;;;4.45;1.30;;;;;;;;;;5042539;28;20846;-65
2023/04/30 12:26:00;;;;;;;3.42;1.90;;;;;;;;;;5047203;28;20028;-65
2023/04/30 12:28:26;;;;;;;10.63;2.17;;;;;;;;;;5043922;28;20132;-65
2023/04/30 12:30:52;;;;;;;4.07;2.50;;;;;;;;;;5045366;28;20862;-65
2023/04/30 12:33:17;;;;;;;2.90;2.08;;;;;;;;;;5045657;28;20024;-65
2023/04/30 12:35:43;;;;;;;3.58;2.45;;;;;;;;;;5046788;28;20040;-65
2023/04/30 12:38:08;;;;;;;4.28;2.53;;;;;;;;;;5040220;28;20044;-65
2023/04/30 12:40:34;;;;;;;4.07;2.67;;;;;;;;;;5058852;28;20032;-65
2023/04/30 12:43:01;;;;;;;6.22;2.13;;;;;;;;;;5083938;28;20032;-65
2023/04/30 12:45:44;;;;;;;6.00;2.42;;;;;;;;;;5091746;28;20028;-65
2023/04/30 12:48:10;;;;;;;2.80;2.07;;;;;;;;;;5093392;28;20028;-65
2023/04/30 12:50:36;;;;;;;3.83;2.22;;;;;;;;;;5093330;28;20027;-67
2023/04/30 12:53:01;;;;;;;3.75;2.17;;;;;;;;;;5094010;28;20031;-66
2023/04/30 12:55:28;;;;;;;4.60;2.28;;;;;;;;;;5093424;28;20375;-66
2023/04/30 12:58:09;;;;;;;3.50;2.25;;;;;;;;;;5093473;28;20118;-65
2023/04/30 13:00:44;;;;;;;5.43;1.83;;;;;;;;;;5093773;28;20470;-66
2023/04/30 13:03:10;;;;;;;3.75;1.80;;;;;;;;;;5091343;28;20033;-66
2023/04/30 13:05:35;;;;;;;4.95;1.73;;;;;;;;;;5093095;28;20566;-65
2023/04/30 13:08:01;;;;;;;3.53;1.63;;;;;;;;;;5093336;28;20489;-65
2023/04/30 13:10:26;;;;;;;6.10;2.40;;;;;;;;;;5079700;28;20024;-65
2023/04/30 13:12:52;;;;;;;2.63;1.42;;;;;;;;;;5093182;28;20026;-65
2023/04/30 13:15:17;;;;;;;2.97;1.50;;;;;;;;;;5093194;28;20028;-65
2023/04/30 13:17:43;;;;;;;2.70;1.73;;;;;;;;;;5093546;28;20467;-65
2023/04/30 13:20:09;;;;;;;5.15;1.75;;;;;;;;;;5092832;28;20121;-65
2023/04/30 13:22:34;;;;;;;4.80;1.80;;;;;;;;;;5093612;28;20132;-65
2023/04/30 13:24:59;;;;;;;2.67;1.67;;;;;;;;;;5088214;28;20096;-65
2023/04/30 13:27:25;;;;;;;2.97;1.85;;;;;;;;;;5093010;28;20357;-65
2023/04/30 13:29:51;;;;;;;7.65;1.92;;;;;;;;;;5078961;28;20463;-66
2023/04/30 13:32:16;;;;;;;3.92;1.92;;;;;;;;;;5083150;28;20056;-65
2023/04/30 13:34:41;;;;;;;4.15;1.80;;;;;;;;;;5089943;28;20027;-65
2023/04/30 13:37:07;;;;;;;2.70;1.50;;;;;;;;;;5092873;28;20024;-65
2023/04/30 13:39:32;;;;;;;2.50;1.30;;;;;;;;;;5093180;28;20282;-65
2023/04/30 13:41:57;;;;;;;3.47;2.07;;;;;;;;;;5092360;28;20032;-65
2023/04/30 13:44:23;;;;;;;3.15;1.50;;;;;;;;;;5092371;28;20783;-66
2023/04/30 13:46:48;;;;;;;3.53;1.95;;;;;;;;;;5075378;28;20032;-65
2023/04/30 13:49:14;;;;;;;2.72;1.65;;;;;;;;;;5092874;28;20054;-66
2023/04/30 13:51:40;;;;;;;2.40;1.40;;;;;;;;;;5088902;28;20041;-65
2023/04/30 13:54:05;;;;;;;3.75;1.80;;;;;;;;;;5090267;28;20032;-65
2023/04/30 13:56:31;;;;;;;2.72;1.73;;;;;;;;;;5088827;28;20016;-65
2023/04/30 13:58:56;;;;;;;2.92;1.65;;;;;;;;;;5089240;28;20141;-65
2023/04/30 14:01:21;;;;;;;3.83;2.37;;;;;;;;;;5090698;28;20055;-66
2023/04/30 14:03:47;;;;;;;2.90;2.03;;;;;;;;;;5091173;28;20653;-65
2023/04/30 14:06:12;;;;;;;3.95;1.90;;;;;;;;;;5091582;28;20277;-66
2023/04/30 14:08:37;;;;;;;5.17;2.93;;;;;;;;;;5072712;28;20153;-65
2023/04/30 14:11:02;;;;;;;4.97;2.50;;;;;;;;;;5090657;28;20273;-66
2023/04/30 14:13:28;;;;;;;2.97;1.83;;;;;;;;;;5090833;28;20959;-66
2023/04/30 14:15:54;;;;;;;5.15;2.58;;;;;;;;;;5089940;28;20258;-65
2023/04/30 14:18:21;;;;;;;3.72;1.90;;;;;;;;;;5090178;28;20095;-65
2023/04/30 14:20:47;;;;;;;4.82;2.15;;;;;;;;;;5088380;28;20111;-65